Pagrindinis puslapis
METAR-TAF:

METAR-TAF

Oro uostai :

Marsa Alam, Egiptas

platuma: 25-33-25N, ilguma: 34-35-01E, Aukštis: 77 m

Dabartinis oras

Ataskaita buvo paskelbta 1 valandą ir 2 minutes, ne 00:00 UTC
Vėjas 14 kt iš Šiaurės Vakarų
Temperatūra 29°C
Drėgmė 35%
Slėgis 1008 hPa
Matomumas 10 km arba daugiau
nėra debesų žemiau 1500 m ir nėra kamuolinių lietaus debesų

METAR: HEMA 240000Z 32014KT CAVOK 29/12 Q1008 NOSIG

Laikas: 03:02 (01:02 UTC)

Prognozė

Ataskaita buvo paskelbta 2 valandos ir 2 minutes, ne 23:00 UTC
Prognozė galioja nuo 24 metu 00 UTC su 25 metu 06 UTC
Vėjas 8 kt iš Šiaurės Vakarų su gūsio iki 22 kt
Matomumas 10 km arba daugiau
nėra debesų žemiau 1500 m ir nėra kamuolinių lietaus debesų

TAF: HEMA 232300Z 2400/2506 31008G22KT CAVOK

Orai ataskaitas ir orų prognozės (METAR, TAF).

turimą stotys yra geltonos ir raudonos taškus žemėlapyje.

Perkelti pele per norėdami pamatyti stoties vardą.

Tada spustelėkite, norėdami matyti oro stebėjimo ir prognozės.

Norėdami pakeisti žemėlapį: spustelėkite ant žalios mygtukų su juodo kryžiaus žemyn,; žalią mygtuką su brūkšneliu, jei norite nutolinti; arba žalių rodyklių gretimoms žemėlapius.


METAR-TAF: